Time;durP1;ratioP1;P1;durP2;ratioP2;P2;SDS_P1;SDS_P2;PMS_P1;PMS_P2;Temp;Humidity;BMP_temperature;BMP_pressure;BME280_temperature;BME280_humidity;BME280_pressure;Samples;Min_cycle;Max_cycle;Signal;HPM_P1;HPM_P2
2023/09/02 00:00:23;;;;;;;1999.90;999.90;;;16.70;99.90;;;;;;5032166;28;20412;-68
2023/09/02 00:02:48;;;;;;;1999.90;999.90;;;16.80;99.90;;;;;;5032011;28;20180;-68
2023/09/02 00:05:14;;;;;;;1999.90;999.90;;;16.80;99.90;;;;;;5032075;28;20284;-68
2023/09/02 00:07:39;;;;;;;1999.90;999.90;;;16.70;99.90;;;;;;5032188;28;20250;-68
2023/09/02 00:10:05;;;;;;;1999.90;999.90;;;16.70;99.90;;;;;;5032177;28;20171;-68
2023/09/02 00:12:31;;;;;;;1999.90;999.90;;;16.70;99.90;;;;;;5031768;28;20681;-68
2023/09/02 00:14:57;;;;;;;1999.90;999.90;;;16.60;99.90;;;;;;5031897;28;20433;-68
2023/09/02 00:17:22;;;;;;;1999.90;999.90;;;16.60;99.90;;;;;;5032020;28;20625;-68
2023/09/02 00:19:48;;;;;;;1999.90;999.90;;;16.60;99.90;;;;;;5031921;28;20173;-68
2023/09/02 00:22:13;;;;;;;1999.90;999.90;;;16.50;99.90;;;;;;5031694;28;20172;-68
2023/09/02 00:24:39;;;;;;;1999.90;999.90;;;16.60;99.90;;;;;;5031526;28;20282;-68
2023/09/02 00:27:05;;;;;;;1999.90;999.90;;;16.60;99.90;;;;;;5032028;28;20226;-68
2023/09/02 00:29:31;;;;;;;1999.90;999.90;;;16.60;99.90;;;;;;5031852;28;20656;-68
2023/09/02 00:31:56;;;;;;;1999.90;999.90;;;16.50;99.90;;;;;;5031506;28;20501;-68
2023/09/02 00:34:22;;;;;;;1999.90;999.90;;;16.50;99.90;;;;;;5031794;28;20603;-68
2023/09/02 00:36:48;;;;;;;1999.90;999.90;;;16.50;99.90;;;;;;5031848;28;20168;-68
2023/09/02 00:39:14;;;;;;;1999.90;999.90;;;16.50;99.90;;;;;;5031833;28;20171;-68
2023/09/02 00:41:47;;;;;;;1999.90;999.90;;;16.50;99.90;;;;;;5031521;28;20236;-68
2023/09/02 00:44:12;;;;;;;1999.90;999.90;;;16.30;99.90;;;;;;5031757;28;20184;-68
2023/09/02 00:46:38;;;;;;;1999.90;999.90;;;16.40;99.90;;;;;;5031793;28;20414;-68
2023/09/02 00:49:04;;;;;;;1999.90;999.90;;;16.40;99.90;;;;;;5034820;28;20213;-69
2023/09/02 00:51:29;;;;;;;1999.90;999.90;;;16.30;99.90;;;;;;5034976;28;20171;-69
2023/09/02 00:53:55;;;;;;;1999.90;999.90;;;16.40;99.90;;;;;;5034633;28;20219;-69
2023/09/02 00:56:22;;;;;;;1999.90;999.90;;;16.30;99.90;;;;;;5034836;28;20173;-69
2023/09/02 00:58:48;;;;;;;1999.90;999.90;;;16.30;99.90;;;;;;5034881;28;20255;-67
2023/09/02 01:01:13;;;;;;;1999.90;999.90;;;16.30;99.90;;;;;;5031270;28;20414;-68
2023/09/02 01:03:40;;;;;;;1999.90;999.90;;;16.30;99.90;;;;;;5031538;28;20403;-67
2023/09/02 01:06:07;;;;;;;1999.90;999.90;;;16.20;99.90;;;;;;5031494;28;20560;-67
2023/09/02 01:08:33;;;;;;;1999.90;999.90;;;16.20;99.90;;;;;;5031503;28;20500;-67
2023/09/02 01:10:59;;;;;;;1999.90;999.90;;;16.10;99.90;;;;;;5031248;28;20434;-67
2023/09/02 01:13:26;;;;;;;1999.90;999.90;;;16.20;99.90;;;;;;5033411;28;20487;-69
2023/09/02 01:15:54;;;;;;;1999.90;999.90;;;16.20;99.90;;;;;;5033847;28;20524;-69
2023/09/02 01:18:24;;;;;;;1999.90;999.90;;;16.20;99.90;;;;;;5034399;28;20497;-69
2023/09/02 01:20:59;;;;;;;1999.90;999.90;;;16.10;99.90;;;;;;5034532;28;20497;-69
2023/09/02 01:23:45;;;;;;;1999.90;999.90;;;16.10;99.90;;;;;;5034570;28;20404;-69
2023/09/02 01:26:19;;;;;;;1999.90;999.90;;;16.20;99.90;;;;;;5034411;28;20493;-69
2023/09/02 01:28:46;;;;;;;1999.90;999.90;;;16.20;99.90;;;;;;5034790;28;20409;-69
2023/09/02 01:31:15;;;;;;;1999.90;999.90;;;16.20;99.90;;;;;;5034895;28;20428;-69
2023/09/02 01:33:41;;;;;;;1999.90;999.90;;;16.20;99.90;;;;;;5034517;28;20850;-69
2023/09/02 01:36:08;;;;;;;1999.90;999.90;;;16.20;99.90;;;;;;5034264;28;20781;-69
2023/09/02 01:38:34;;;;;;;1999.90;999.90;;;16.10;99.90;;;;;;5037913;28;20409;-69
2023/09/02 01:41:04;;;;;;;1999.90;999.90;;;16.10;99.90;;;;;;5038063;28;21080;-69
2023/09/02 01:43:30;;;;;;;1999.90;999.90;;;16.10;99.90;;;;;;5038579;28;20403;-69
2023/09/02 01:45:57;;;;;;;1999.90;999.90;;;16.20;99.90;;;;;;5049128;28;20441;-69
2023/09/02 01:48:23;;;;;;;1999.90;999.90;;;16.20;99.90;;;;;;5050116;28;20486;-69
2023/09/02 01:50:51;;;;;;;1999.90;999.90;;;16.20;99.90;;;;;;5049267;28;20433;-69
2023/09/02 01:53:17;;;;;;;1999.90;999.90;;;16.20;99.90;;;;;;5048617;28;20487;-69
2023/09/02 01:55:45;;;;;;;1999.90;999.90;;;16.20;99.90;;;;;;5048471;28;20434;-69
2023/09/02 01:58:11;;;;;;;1999.90;999.90;;;16.20;99.90;;;;;;5048882;28;20174;-68
2023/09/02 02:00:38;;;;;;;1999.90;999.90;;;16.20;99.90;;;;;;5048017;28;20421;-68
2023/09/02 02:03:11;;;;;;;1999.90;999.90;;;16.20;99.90;;;;;;5048049;28;20771;-69
2023/09/02 02:05:51;;;;;;;1999.90;999.90;;;16.20;99.90;;;;;;5048740;28;20466;-67
2023/09/02 02:08:32;;;;;;;1999.90;999.90;;;16.10;99.90;;;;;;5049005;28;20437;-68
2023/09/02 02:11:01;;;;;;;1999.90;999.90;;;16.10;99.90;;;;;;5050792;28;20497;-69
2023/09/02 02:13:27;;;;;;;1999.90;999.90;;;16.10;99.90;;;;;;5051254;28;20515;-69
2023/09/02 02:15:52;;;;;;;1999.90;999.90;;;16.20;99.90;;;;;;5050533;28;20922;-69
2023/09/02 02:18:18;;;;;;;1999.90;999.90;;;16.20;99.90;;;;;;5049217;28;20175;-69
2023/09/02 02:21:01;;;;;;;1999.90;999.90;;;16.20;99.90;;;;;;5049856;28;20203;-68
2023/09/02 02:23:27;;;;;;;1999.90;999.90;;;16.20;99.90;;;;;;5050364;28;20167;-68
2023/09/02 02:25:58;;;;;;;1999.90;999.90;;;16.20;99.90;;;;;;5048880;28;20450;-68
2023/09/02 02:28:24;;;;;;;1999.90;999.90;;;16.20;99.90;;;;;;5033941;28;20170;-68
2023/09/02 02:30:49;;;;;;;1999.90;999.90;;;16.10;99.90;;;;;;5033771;28;20479;-68
2023/09/02 02:33:15;;;;;;;1999.90;999.90;;;16.10;99.90;;;;;;5033492;28;20213;-68
2023/09/02 02:35:41;;;;;;;1999.90;999.90;;;16.20;99.90;;;;;;5033730;28;20192;-68
2023/09/02 02:38:06;;;;;;;1999.90;999.90;;;16.10;99.90;;;;;;5033722;28;20599;-68
2023/09/02 02:40:32;;;;;;;1999.90;999.90;;;16.20;99.90;;;;;;5033640;28;20177;-68
2023/09/02 02:42:57;;;;;;;1999.90;999.90;;;16.20;99.90;;;;;;5033350;28;20250;-68
2023/09/02 02:45:23;;;;;;;1999.90;999.90;;;16.20;99.90;;;;;;5033495;28;20193;-68
2023/09/02 02:47:49;;;;;;;1999.90;999.90;;;16.30;99.90;;;;;;5033336;28;20205;-68
2023/09/02 02:50:14;;;;;;;1999.90;999.90;;;16.30;99.90;;;;;;5033508;28;20645;-68
2023/09/02 02:52:40;;;;;;;1999.90;999.90;;;16.30;99.90;;;;;;5033206;28;20297;-68
2023/09/02 02:55:06;;;;;;;1999.90;999.90;;;16.30;99.90;;;;;;5033408;28;20673;-68
2023/09/02 02:57:32;;;;;;;1999.90;999.90;;;16.20;99.90;;;;;;5033312;28;20236;-67
2023/09/02 02:59:57;;;;;;;1999.90;999.90;;;16.20;99.90;;;;;;5033311;28;20402;-68
2023/09/02 03:02:23;;;;;;;1999.90;999.90;;;16.20;99.90;;;;;;5032947;28;20166;-67
2023/09/02 03:04:48;;;;;;;1999.90;999.90;;;16.20;99.90;;;;;;5040766;28;20247;-68
2023/09/02 03:07:14;;;;;;;1999.90;999.90;;;16.20;99.90;;;;;;5050378;28;20188;-70
2023/09/02 03:09:40;;;;;;;1999.90;999.90;;;16.20;99.90;;;;;;5050126;28;20178;-69
2023/09/02 03:12:06;;;;;;;1999.90;999.90;;;16.20;99.90;;;;;;5049999;28;20421;-69
2023/09/02 03:14:32;;;;;;;1999.90;999.90;;;16.20;99.90;;;;;;5050571;28;20426;-69
2023/09/02 03:16:58;;;;;;;1999.90;999.90;;;16.10;99.90;;;;;;5050291;28;20480;-69
2023/09/02 03:19:23;;;;;;;1999.90;999.90;;;16.10;99.90;;;;;;5050529;28;20172;-69
2023/09/02 03:21:49;;;;;;;1999.90;999.90;;;16.10;99.90;;;;;;5048757;28;20452;-68
2023/09/02 03:24:15;;;;;;;1999.90;999.90;;;16.00;99.90;;;;;;5050801;28;20204;-69
2023/09/02 03:26:40;;;;;;;1999.90;999.90;;;16.00;99.90;;;;;;5045071;28;20258;-69
2023/09/02 03:29:06;;;;;;;1999.90;999.90;;;16.00;99.90;;;;;;5035416;28;20199;-69
2023/09/02 03:31:31;;;;;;;1999.90;999.90;;;16.00;99.90;;;;;;5034819;28;20617;-69
2023/09/02 03:33:57;;;;;;;1999.90;999.90;;;16.10;99.90;;;;;;5034657;28;20212;-69
2023/09/02 03:36:22;;;;;;;1999.90;999.90;;;15.90;99.90;;;;;;5034894;28;20179;-69
2023/09/02 03:38:48;;;;;;;1999.90;999.90;;;15.90;99.90;;;;;;5034839;28;20208;-69
2023/09/02 03:41:17;;;;;;;1999.90;999.90;;;15.90;99.90;;;;;;5032961;28;20175;-69
2023/09/02 03:43:44;;;;;;;1999.90;999.90;;;15.80;99.90;;;;;;5034185;28;20187;-69
2023/09/02 03:46:10;;;;;;;1999.90;999.90;;;15.80;99.90;;;;;;5034026;28;20460;-69
2023/09/02 03:48:36;;;;;;;1999.90;999.90;;;15.70;99.90;;;;;;5033607;28;20463;-68
2023/09/02 03:51:16;;;;;;;1999.90;999.90;;;15.60;99.90;;;;;;5032120;28;20554;-68
2023/09/02 03:53:42;;;;;;;1999.90;999.90;;;15.60;99.90;;;;;;5032390;28;20290;-68
2023/09/02 03:56:08;;;;;;;1999.90;999.90;;;15.50;99.90;;;;;;5032207;28;20825;-68
2023/09/02 03:58:34;;;;;;;1999.90;999.90;;;15.50;99.90;;;;;;5031664;28;20426;-68
2023/09/02 04:01:00;;;;;;;1999.90;999.90;;;15.50;99.90;;;;;;5031996;28;20511;-68
2023/09/02 04:03:26;;;;;;;1999.90;999.90;;;15.50;99.90;;;;;;5032176;28;20450;-68
2023/09/02 04:05:52;;;;;;;1999.90;999.90;;;15.50;99.90;;;;;;5032072;28;20257;-68
2023/09/02 04:08:20;;;;;;;1999.90;999.90;;;15.50;99.90;;;;;;5032100;28;20417;-68
2023/09/02 04:10:51;;;;;;;1999.90;999.90;;;15.50;99.90;;;;;;5032170;28;20552;-68
2023/09/02 04:13:17;;;;;;;1999.90;999.90;;;15.50;99.90;;;;;;5031804;28;20969;-68
2023/09/02 04:15:42;;;;;;;1999.90;999.90;;;15.60;99.90;;;;;;5032012;28;20479;-68
2023/09/02 04:18:08;;;;;;;1999.90;999.90;;;15.60;99.90;;;;;;5032125;28;20178;-68
2023/09/02 04:20:36;;;;;;;1999.90;999.90;;;15.70;99.90;;;;;;5032102;28;20178;-68
2023/09/02 04:23:02;;;;;;;1999.90;999.90;;;15.60;99.90;;;;;;5031787;28;20172;-68
2023/09/02 04:25:27;;;;;;;1999.90;999.90;;;15.60;99.90;;;;;;5032267;28;20855;-68
2023/09/02 04:27:53;;;;;;;1999.90;999.90;;;15.50;99.90;;;;;;5032845;28;20264;-69
2023/09/02 04:30:19;;;;;;;1999.90;999.90;;;15.40;99.90;;;;;;5033879;28;20174;-69
2023/09/02 04:32:47;;;;;;;1999.90;999.90;;;15.40;99.90;;;;;;5033306;28;20202;-69
2023/09/02 04:35:13;;;;;;;1999.90;999.90;;;15.30;99.90;;;;;;5033640;28;20773;-69
2023/09/02 04:37:39;;;;;;;1999.90;999.90;;;15.30;99.90;;;;;;5033890;28;20452;-69
2023/09/02 04:40:06;;;;;;;1999.90;999.90;;;15.40;99.90;;;;;;5033623;28;20576;-69
2023/09/02 04:42:31;;;;;;;1999.90;999.90;;;15.40;99.90;;;;;;5031482;28;20169;-68
2023/09/02 04:44:57;;;;;;;1999.90;999.90;;;15.50;99.90;;;;;;5031747;28;20921;-68
2023/09/02 04:47:22;;;;;;;1999.90;999.90;;;15.50;99.90;;;;;;5031758;28;20555;-68
2023/09/02 04:49:48;;;;;;;1999.90;999.90;;;15.50;99.90;;;;;;5045876;28;20196;-69
2023/09/02 04:52:13;;;;;;;1999.90;999.90;;;15.50;99.90;;;;;;5047040;28;20209;-70
2023/09/02 04:54:43;;;;;;;1999.90;999.90;;;15.50;99.90;;;;;;5048591;28;20184;-68
2023/09/02 04:57:09;;;;;;;1999.90;999.90;;;15.60;99.90;;;;;;5046462;28;20175;-69
2023/09/02 04:59:34;;;;;;;1999.90;999.90;;;15.60;99.90;;;;;;5047230;28;20414;-70
2023/09/02 05:02:00;;;;;;;1999.90;999.90;;;15.60;99.90;;;;;;5046691;28;20173;-69
2023/09/02 05:04:26;;;;;;;1999.90;999.90;;;15.60;99.90;;;;;;5046066;28;20253;-69
2023/09/02 05:06:51;;;;;;;1999.90;999.90;;;15.60;99.90;;;;;;5046797;28;20186;-69
2023/09/02 05:09:17;;;;;;;1999.90;999.90;;;15.60;99.90;;;;;;5047339;28;20176;-69
2023/09/02 05:11:42;;;;;;;1999.90;999.90;;;15.60;99.90;;;;;;5049167;28;20224;-69
2023/09/02 05:14:08;;;;;;;1999.90;999.90;;;15.60;99.90;;;;;;5051473;28;20199;-68
2023/09/02 05:16:34;;;;;;;1999.90;999.90;;;15.60;99.90;;;;;;5051627;28;20166;-68
2023/09/02 05:18:59;;;;;;;1999.90;999.90;;;15.70;99.90;;;;;;5051156;28;20171;-69
2023/09/02 05:21:26;;;;;;;1999.90;999.90;;;15.70;99.90;;;;;;5049990;28;20172;-69
2023/09/02 05:23:52;;;;;;;1999.90;999.90;;;15.60;99.90;;;;;;5050168;28;20496;-69
2023/09/02 05:26:19;;;;;;;1999.90;999.90;;;15.60;99.90;;;;;;5051104;28;20437;-68
2023/09/02 05:28:45;;;;;;;1999.90;999.90;;;15.60;99.90;;;;;;5052841;28;20415;-69
2023/09/02 05:31:10;;;;;;;1999.90;999.90;;;15.60;99.90;;;;;;5050432;28;20461;-68
2023/09/02 05:33:36;;;;;;;1999.90;999.90;;;15.70;99.90;;;;;;5051135;28;20213;-69
2023/09/02 05:36:01;;;;;;;1999.90;999.90;;;15.70;99.90;;;;;;5052304;28;20193;-69
2023/09/02 05:38:27;;;;;;;1999.90;999.90;;;15.80;99.90;;;;;;5051448;28;20207;-69
2023/09/02 05:40:53;;;;;;;1999.90;999.90;;;15.80;99.90;;;;;;5051499;28;20171;-65
2023/09/02 05:43:19;;;;;;;1999.90;999.90;;;15.90;99.90;;;;;;5052106;28;20227;-69
2023/09/02 05:45:47;;;;;;;1999.90;999.90;;;15.90;99.90;;;;;;5053025;28;20813;-68
2023/09/02 05:48:12;;;;;;;1999.90;999.90;;;16.00;99.90;;;;;;5035032;28;20208;-69
2023/09/02 05:50:38;;;;;;;1999.90;999.90;;;16.00;99.90;;;;;;5050889;28;20420;-69
2023/09/02 05:53:03;;;;;;;1999.90;999.90;;;16.00;99.90;;;;;;5051319;28;20265;-69
2023/09/02 05:55:29;;;;;;;1999.90;999.90;;;16.00;99.90;;;;;;5051871;28;20192;-68
2023/09/02 05:57:55;;;;;;;1999.90;999.90;;;16.10;99.90;;;;;;5051110;28;20180;-70
2023/09/02 06:00:20;;;;;;;1999.90;999.90;;;16.20;99.90;;;;;;5052072;28;20374;-69
2023/09/02 06:02:46;;;;;;;1999.90;999.90;;;16.30;99.90;;;;;;5034084;28;20189;-70
2023/09/02 06:05:12;;;;;;;1999.90;999.90;;;16.40;99.90;;;;;;5052541;28;20199;-70
2023/09/02 06:07:37;;;;;;;1999.90;999.90;;;16.40;99.90;;;;;;5052214;28;20160;-68
2023/09/02 06:10:03;;;;;;;1999.90;999.90;;;16.50;99.90;;;;;;5050289;28;20180;-67
2023/09/02 06:12:29;;;;;;;1999.90;999.90;;;16.60;99.90;;;;;;5033897;28;20208;-67
2023/09/02 06:14:55;;;;;;;1999.90;999.90;;;16.70;99.90;;;;;;5034278;28;20942;-68
2023/09/02 06:17:21;;;;;;;1999.90;999.90;;;16.70;99.90;;;;;;5034118;28;20863;-67
2023/09/02 06:19:46;;;;;;;1999.90;999.90;;;16.70;99.90;;;;;;5034161;28;20181;-68
2023/09/02 06:22:12;;;;;;;1999.90;999.90;;;16.80;99.90;;;;;;5033288;28;21003;-68
2023/09/02 06:24:37;;;;;;;1999.90;999.90;;;16.90;99.90;;;;;;5033831;28;20206;-69
2023/09/02 06:27:03;;;;;;;1999.90;999.90;;;16.90;99.90;;;;;;5034173;28;20605;-68
2023/09/02 06:29:32;;;;;;;1999.90;999.90;;;17.00;99.90;;;;;;5034082;28;20532;-68
2023/09/02 06:31:59;;;;;;;1999.90;999.90;;;17.10;99.90;;;;;;5033617;28;20646;-69
2023/09/02 06:34:24;;;;;;;1999.90;999.90;;;17.20;99.90;;;;;;5033737;28;20487;-68
2023/09/02 06:36:50;;;;;;;1999.90;999.90;;;17.20;99.90;;;;;;5033689;28;20407;-69
2023/09/02 06:39:15;;;;;;;1999.90;999.90;;;17.30;99.90;;;;;;5033729;28;20182;-68
2023/09/02 06:41:42;;;;;;;1999.90;999.90;;;17.30;99.90;;;;;;5033375;28;20202;-67
2023/09/02 06:44:08;;;;;;;1999.90;999.90;;;17.40;99.90;;;;;;5033686;28;20183;-68
2023/09/02 06:46:35;;;;;;;1999.90;999.90;;;17.50;99.90;;;;;;5032387;28;20973;-67
2023/09/02 06:49:01;;;;;;;1999.90;999.90;;;17.50;99.90;;;;;;5033604;28;20180;-68
2023/09/02 06:51:26;;;;;;;1999.90;999.90;;;17.60;99.90;;;;;;5033156;28;20931;-69
2023/09/02 06:53:52;;;;;;;1999.90;999.90;;;17.70;99.90;;;;;;5033387;28;20624;-67
2023/09/02 06:56:17;;;;;;;1999.90;999.90;;;17.80;99.90;;;;;;5033352;28;20221;-68
2023/09/02 06:58:43;;;;;;;1999.90;999.90;;;17.80;99.90;;;;;;5033337;28;20170;-68
2023/09/02 07:01:17;;;;;;;1999.90;999.90;;;17.90;99.90;;;;;;5033019;28;20174;-68
2023/09/02 07:03:43;;;;;;;1999.90;999.90;;;17.90;99.90;;;;;;5033344;28;20742;-67
2023/09/02 07:06:13;;;;;;;1999.90;999.90;;;18.00;99.90;;;;;;5033031;28;20487;-69
2023/09/02 07:08:39;;;;;;;1999.90;999.90;;;18.10;99.90;;;;;;5033167;28;20405;-68
2023/09/02 07:11:05;;;;;;;1999.90;999.90;;;18.30;99.90;;;;;;5032842;28;20407;-68
2023/09/02 07:13:31;;;;;;;1999.90;999.90;;;18.40;99.90;;;;;;5033381;28;21064;-69
2023/09/02 07:16:04;;;;;;;1999.90;999.90;;;18.40;99.90;;;;;;5034113;28;20423;-69
2023/09/02 07:18:30;;;;;;;1999.90;999.90;;;18.50;99.90;;;;;;5033850;28;20259;-69
2023/09/02 07:20:59;;;;;;;1999.90;999.90;;;18.50;99.90;;;;;;5033634;28;20930;-69
2023/09/02 07:23:26;;;;;;;1999.90;999.90;;;18.60;99.90;;;;;;5033711;28;20780;-69
2023/09/02 07:25:51;;;;;;;1999.90;999.90;;;18.70;99.90;;;;;;5033810;28;20463;-69
2023/09/02 07:28:17;;;;;;;1999.90;999.90;;;18.80;99.90;;;;;;5033962;28;20418;-69
2023/09/02 07:30:43;;;;;;;1999.90;999.90;;;18.90;99.90;;;;;;5033863;28;20257;-69
2023/09/02 07:33:08;;;;;;;1999.90;999.90;;;18.90;99.90;;;;;;5033261;28;20537;-69
2023/09/02 07:35:36;;;;;;;1999.90;999.90;;;19.10;99.90;;;;;;5033593;28;20510;-69
2023/09/02 07:38:05;;;;;;;1999.90;999.90;;;19.10;99.90;;;;;;5034665;28;20186;-69
2023/09/02 07:40:30;;;;;;;1999.90;999.90;;;19.20;99.90;;;;;;5034429;28;20419;-69
2023/09/02 07:42:59;;;;;;;1999.90;999.90;;;19.20;99.90;;;;;;5033597;28;20557;-69
2023/09/02 07:45:25;;;;;;;1999.90;999.90;;;19.20;99.90;;;;;;5033548;28;20204;-69
2023/09/02 07:47:50;;;;;;;1999.90;999.90;;;19.20;99.90;;;;;;5033489;28;20417;-69
2023/09/02 07:50:16;;;;;;;1999.90;999.90;;;19.20;99.90;;;;;;5033808;28;20182;-69
2023/09/02 07:52:42;;;;;;;1999.90;999.90;;;19.20;99.90;;;;;;5039865;28;20208;-69
2023/09/02 07:55:07;;;;;;;1999.90;999.90;;;19.30;99.90;;;;;;5042431;28;20230;-69
2023/09/02 07:57:33;;;;;;;1999.90;999.90;;;19.50;99.90;;;;;;5040071;28;20168;-69
2023/09/02 07:59:59;;;;;;;1999.90;999.90;;;19.60;99.90;;;;;;5044513;28;20203;-69
2023/09/02 08:02:25;;;;;;;1999.90;999.90;;;19.70;99.90;;;;;;5052825;28;20176;-69
2023/09/02 08:04:51;;;;;;;1999.90;999.90;;;19.80;99.90;;;;;;5052854;28;20489;-69
2023/09/02 08:07:16;;;;;;;1999.90;999.90;;;19.90;99.90;;;;;;5046924;28;20208;-69
2023/09/02 08:09:42;;;;;;;1999.90;999.90;;;20.00;99.90;;;;;;5044413;28;20175;-69
2023/09/02 08:12:08;;;;;;;1999.90;999.90;;;20.20;99.90;;;;;;5052377;28;20649;-69
2023/09/02 08:14:34;;;;;;;1999.90;999.90;;;20.30;99.90;;;;;;5052753;28;20196;-69
2023/09/02 08:16:59;;;;;;;1999.90;999.90;;;20.40;99.90;;;;;;5052476;28;20418;-69
2023/09/02 08:19:25;;;;;;;1999.90;999.90;;;20.40;99.90;;;;;;5052471;28;20166;-69
2023/09/02 08:21:50;;;;;;;1999.90;999.90;;;20.50;99.90;;;;;;5052101;28;20170;-69
2023/09/02 08:24:16;;;;;;;1999.90;999.90;;;20.60;99.90;;;;;;5052370;28;20203;-69
2023/09/02 08:26:42;;;;;;;1999.90;999.90;;;20.70;99.90;;;;;;5052458;28;20209;-69
2023/09/02 08:29:08;;;;;;;1999.90;999.90;;;20.70;99.90;;;;;;5052362;28;20712;-69
2023/09/02 08:31:33;;;;;;;1999.90;999.90;;;20.80;99.90;;;;;;5061704;28;20421;-70
2023/09/02 08:33:59;;;;;;;1999.90;999.90;;;20.80;99.90;;;;;;5063099;28;20458;-68
2023/09/02 08:36:25;;;;;;;1999.90;999.90;;;20.80;99.90;;;;;;5057202;28;20163;-70
2023/09/02 08:38:53;;;;;;;1999.90;999.90;;;20.80;99.90;;;;;;5050661;28;20176;-69
2023/09/02 08:41:34;;;;;;;1999.90;999.90;;;20.80;99.90;;;;;;5055872;28;20170;-69
2023/09/02 08:44:04;;;;;;;1999.90;999.90;;;20.80;99.90;;;;;;5058640;28;20487;-69
2023/09/02 08:46:31;;;;;;;1999.90;999.90;;;20.90;99.90;;;;;;5049102;28;20417;-68
2023/09/02 08:48:58;;;;;;;1999.90;999.90;;;21.00;99.90;;;;;;5056463;28;20501;-70
2023/09/02 08:51:25;;;;;;;1999.90;999.90;;;21.10;99.90;;;;;;5058003;28;20513;-69
2023/09/02 08:53:53;;;;;;;1999.90;999.90;;;21.20;99.90;;;;;;5066603;28;20458;-70
2023/09/02 08:56:20;;;;;;;1999.90;999.90;;;21.20;99.90;;;;;;5059284;28;20436;-70
2023/09/02 08:58:48;;;;;;;1999.90;999.90;;;21.30;99.90;;;;;;5067726;28;20409;-69
2023/09/02 09:01:19;;;;;;;1999.90;999.90;;;21.40;99.90;;;;;;5056501;28;20815;-69
2023/09/02 09:03:52;;;;;;;1999.90;999.90;;;21.50;99.90;;;;;;5041618;28;20437;-70
2023/09/02 09:06:23;;;;;;;1999.90;999.90;;;21.60;99.90;;;;;;5039882;28;20449;-70
2023/09/02 09:08:51;;;;;;;1999.90;999.90;;;21.70;99.90;;;;;;5051544;28;20939;-69
2023/09/02 09:11:17;;;;;;;1999.90;999.90;;;21.90;99.90;;;;;;5046698;28;20438;-70
2023/09/02 09:13:48;;;;;;;1999.90;999.90;;;22.00;99.90;;;;;;5045636;28;20468;-68
2023/09/02 09:16:19;;;;;;;1999.90;999.90;;;22.10;99.90;;;;;;5042642;28;20446;-68
2023/09/02 09:18:45;;;;;;;1999.90;999.90;;;22.20;99.90;;;;;;5058752;28;20409;-70
2023/09/02 09:21:11;;;;;;;1999.90;999.90;;;22.30;99.90;;;;;;5052831;28;20461;-66
2023/09/02 09:23:36;;;;;;;1999.90;999.90;;;22.40;99.90;;;;;;5052304;28;20414;-68
2023/09/02 09:26:09;;;;;;;1999.90;999.90;;;22.50;99.90;;;;;;5058104;28;20943;-70
2023/09/02 09:28:57;;;;;;;1999.90;999.90;;;22.60;99.90;;;;;;5066275;28;20177;-68
2023/09/02 09:31:23;;;;;;;1999.90;999.90;;;22.80;99.90;;;;;;5048857;28;20424;-70
2023/09/02 09:33:50;;;;;;;1999.90;999.90;;;22.90;99.90;;;;;;5056433;28;20466;-70
2023/09/02 09:36:17;;;;;;;1999.90;999.90;;;22.90;99.90;;;;;;5057729;28;20435;-69
2023/09/02 09:38:42;;;;;;;1999.90;999.90;;;22.70;99.90;;;;;;5065669;28;20425;-68
2023/09/02 09:41:09;;;;;;;1999.90;999.90;;;22.80;99.90;;;;;;5054431;28;20413;-68
2023/09/02 09:43:34;;;;;;;1999.90;999.90;;;22.80;99.90;;;;;;5054802;28;20178;-68
2023/09/02 09:46:00;;;;;;;1999.90;999.90;;;22.80;99.90;;;;;;5054598;28;20431;-68
2023/09/02 09:48:26;;;;;;;1999.90;999.90;;;23.00;99.90;;;;;;5054557;28;20640;-68
2023/09/02 09:50:51;;;;;;;1999.90;999.90;;;23.30;99.90;;;;;;5028800;28;20654;-69
2023/09/02 09:53:17;;;;;;;1999.90;999.90;;;23.40;99.90;;;;;;5037482;28;20208;-68
2023/09/02 09:55:43;;;;;;;1999.90;999.90;;;23.50;99.90;;;;;;5039456;28;20192;-68
2023/09/02 09:58:09;;;;;;;1999.90;999.90;;;23.60;99.90;;;;;;5035705;28;20186;-68
2023/09/02 10:00:35;;;;;;;1999.90;999.90;;;23.70;99.90;;;;;;5034676;28;20415;-68
2023/09/02 10:03:01;;;;;;;1999.90;999.90;;;23.80;99.90;;;;;;5046875;28;20489;-68
2023/09/02 10:05:31;;;;;;;1999.90;999.90;;;24.10;99.90;;;;;;5045839;28;20818;-68
2023/09/02 10:07:59;;;;;;;1999.90;999.90;;;24.20;99.90;;;;;;5054221;28;20168;-68
2023/09/02 10:10:36;;;;;;;1999.90;999.90;;;24.20;99.90;;;;;;5054300;28;20759;-68
2023/09/02 10:13:02;;;;;;;1999.90;999.90;;;24.10;99.90;;;;;;5053791;28;20769;-68
2023/09/02 10:15:28;;;;;;;1999.90;999.90;;;24.00;99.90;;;;;;5053979;28;20417;-68
2023/09/02 10:17:59;;;;;;;1999.90;999.90;;;23.90;99.90;;;;;;5053960;28;20930;-69
2023/09/02 10:20:29;;;;;;;1999.90;999.90;;;23.90;99.90;;;;;;5053699;28;20417;-68
2023/09/02 10:23:04;;;;;;;1999.90;999.90;;;23.80;99.90;;;;;;5040844;28;20419;-68
2023/09/02 10:25:42;;;;;;;1999.90;999.90;;;23.90;99.90;;;;;;5015670;28;20474;-69
2023/09/02 10:28:15;;;;;;;1999.90;999.90;;;24.00;99.90;;;;;;5024717;28;20494;-69
2023/09/02 10:31:00;;;;;;;1999.90;999.90;;;24.20;99.90;;;;;;5027009;28;20410;-70
2023/09/02 10:34:04;;;;;;;1999.90;999.90;;;24.30;99.90;;;;;;5055566;28;20540;-70
2023/09/02 10:36:33;;;;;;;1999.90;999.90;;;24.30;99.90;;;;;;5064232;28;20401;-70
2023/09/02 10:39:03;;;;;;;1999.90;999.90;;;24.40;99.90;;;;;;5063262;28;20416;-69
2023/09/02 10:41:30;;;;;;;1999.90;999.90;;;24.50;99.90;;;;;;5063928;28;20513;-70
2023/09/02 10:43:56;;;;;;;1999.90;999.90;;;24.80;99.90;;;;;;5064401;28;20471;-70
2023/09/02 10:46:23;;;;;;;1999.90;999.90;;;24.70;99.90;;;;;;5063571;28;20980;-70
2023/09/02 10:48:49;;;;;;;1999.90;999.90;;;24.80;99.90;;;;;;5064053;28;20413;-69
2023/09/02 10:51:15;;;;;;;1999.90;999.90;;;24.90;99.90;;;;;;5061637;28;20418;-69
2023/09/02 10:53:50;;;;;;;1999.90;999.90;;;25.10;99.90;;;;;;5063071;28;20452;-68
2023/09/02 10:56:36;;;;;;;1999.90;999.90;;;25.20;99.90;;;;;;5063695;28;20425;-70
2023/09/02 10:59:04;;;;;;;1999.90;999.90;;;25.20;99.90;;;;;;5064462;28;20410;-70
2023/09/02 11:01:49;;;;;;;1999.90;999.90;;;25.30;99.90;;;;;;5063392;28;20493;-70
2023/09/02 11:04:34;;;;;;;1999.90;999.90;;;25.40;99.90;;;;;;5062972;28;20483;-70
2023/09/02 11:07:24;;;;;;;1999.90;999.90;;;25.50;99.90;;;;;;5063343;28;20396;-71
2023/09/02 11:09:50;;;;;;;1999.90;999.90;;;25.60;99.90;;;;;;5062950;28;20406;-69
2023/09/02 11:12:16;;;;;;;1999.90;999.90;;;25.90;99.90;;;;;;5063061;28;20446;-70
2023/09/02 11:14:41;;;;;;;1999.90;999.90;;;26.20;99.90;;;;;;5061896;28;20434;-69
2023/09/02 11:17:27;;;;;;;1999.90;999.90;;;26.20;99.90;;;;;;5063181;28;20172;-70
2023/09/02 11:20:03;;;;;;;1999.90;999.90;;;25.90;99.90;;;;;;5062955;28;20250;-70
2023/09/02 11:22:48;;;;;;;1999.90;999.90;;;25.70;99.90;;;;;;5059761;28;20410;-69
2023/09/02 11:25:43;;;;;;;1999.90;999.90;;;25.50;99.90;;;;;;5054502;28;20966;-69
2023/09/02 11:28:12;;;;;;;1999.90;999.90;;;25.60;99.90;;;;;;5049702;28;20421;-69
2023/09/02 11:30:39;;;;;;;1999.90;999.90;;;26.00;99.90;;;;;;5053649;28;20396;-68
2023/09/02 11:33:09;;;;;;;1999.90;999.90;;;26.30;99.90;;;;;;5052211;28;20917;-68
2023/09/02 11:35:36;;;;;;;1999.90;999.90;;;26.30;99.90;;;;;;5052505;28;20426;-68
2023/09/02 11:38:04;;;;;;;1999.90;999.90;;;26.60;99.90;;;;;;5052555;28;20464;-69
2023/09/02 11:40:30;;;;;;;1999.90;999.90;;;27.00;99.90;;;;;;5052551;28;20406;-68
2023/09/02 11:43:00;;;;;;;1999.90;999.90;;;27.00;99.90;;;;;;5052189;28;20945;-69
2023/09/02 11:45:29;;;;;;;1999.90;999.90;;;27.20;99.90;;;;;;5052236;28;20396;-68
2023/09/02 11:47:55;;;;;;;1999.90;999.90;;;27.00;99.90;;;;;;5052724;28;20948;-69
2023/09/02 11:50:22;;;;;;;1999.90;999.90;;;26.70;99.90;;;;;;5052282;28;20380;-69
2023/09/02 11:52:52;;;;;;;1999.90;999.90;;;26.70;99.90;;;;;;5052014;28;20683;-69
2023/09/02 11:55:17;;;;;;;1999.90;999.90;;;27.30;99.90;;;;;;5052178;28;20434;-68
2023/09/02 11:57:45;;;;;;;1999.90;999.90;;;27.20;99.90;;;;;;5052173;28;20745;-68
2023/09/02 12:00:16;;;;;;;1999.90;999.90;;;27.10;99.90;;;;;;5052102;28;20224;-68